sensor_id;sensor_type;location;lat;lon;timestamp;temperature;humidity
28087;DHT22;15392;48.912;8.380;2023-06-22T00:02:17;28.30;43.90
28087;DHT22;15392;48.912;8.380;2023-06-22T00:04:43;28.20;43.70
28087;DHT22;15392;48.912;8.380;2023-06-22T00:07:12;28.20;43.70
28087;DHT22;15392;48.912;8.380;2023-06-22T00:09:38;28.10;43.50
28087;DHT22;15392;48.912;8.380;2023-06-22T00:12:04;28.10;43.40
28087;DHT22;15392;48.912;8.380;2023-06-22T00:14:30;28.10;43.60
28087;DHT22;15392;48.912;8.380;2023-06-22T00:16:56;28.00;44.00
28087;DHT22;15392;48.912;8.380;2023-06-22T00:19:24;28.00;43.50
28087;DHT22;15392;48.912;8.380;2023-06-22T00:21:52;28.00;43.40
28087;DHT22;15392;48.912;8.380;2023-06-22T00:24:22;28.00;43.50
28087;DHT22;15392;48.912;8.380;2023-06-22T00:26:48;27.90;43.40
28087;DHT22;15392;48.912;8.380;2023-06-22T00:29:14;27.90;43.30
28087;DHT22;15392;48.912;8.380;2023-06-22T00:31:40;28.00;43.40
28087;DHT22;15392;48.912;8.380;2023-06-22T00:34:06;27.90;43.20
28087;DHT22;15392;48.912;8.380;2023-06-22T00:36:34;27.90;44.20
28087;DHT22;15392;48.912;8.380;2023-06-22T00:39:01;27.90;43.70
28087;DHT22;15392;48.912;8.380;2023-06-22T00:41:27;27.90;44.00
28087;DHT22;15392;48.912;8.380;2023-06-22T00:43:56;27.90;43.70
28087;DHT22;15392;48.912;8.380;2023-06-22T00:46:22;27.90;43.70
28087;DHT22;15392;48.912;8.380;2023-06-22T00:48:48;27.80;43.80
28087;DHT22;15392;48.912;8.380;2023-06-22T00:51:16;27.80;43.80
28087;DHT22;15392;48.912;8.380;2023-06-22T00:53:42;27.80;43.80
28087;DHT22;15392;48.912;8.380;2023-06-22T00:56:08;27.80;43.90
28087;DHT22;15392;48.912;8.380;2023-06-22T00:58:36;27.80;43.90
28087;DHT22;15392;48.912;8.380;2023-06-22T01:01:02;27.80;44.00
28087;DHT22;15392;48.912;8.380;2023-06-22T01:03:28;27.80;44.00
28087;DHT22;15392;48.912;8.380;2023-06-22T01:05:58;27.70;43.90
28087;DHT22;15392;48.912;8.380;2023-06-22T01:11:41;27.80;44.80
28087;DHT22;15392;48.912;8.380;2023-06-22T01:14:32;27.70;44.60
28087;DHT22;15392;48.912;8.380;2023-06-22T01:17:05;27.70;45.50
28087;DHT22;15392;48.912;8.380;2023-06-22T01:22:16;27.60;45.20
28087;DHT22;15392;48.912;8.380;2023-06-22T01:25:19;27.60;44.70
28087;DHT22;15392;48.912;8.380;2023-06-22T01:28:05;27.50;45.30
28087;DHT22;15392;48.912;8.380;2023-06-22T01:30:42;27.50;46.00
28087;DHT22;15392;48.912;8.380;2023-06-22T01:33:11;27.40;44.70
28087;DHT22;15392;48.912;8.380;2023-06-22T01:35:38;27.30;44.80
28087;DHT22;15392;48.912;8.380;2023-06-22T01:38:04;27.20;44.20
28087;DHT22;15392;48.912;8.380;2023-06-22T01:40:32;27.20;44.30
28087;DHT22;15392;48.912;8.380;2023-06-22T01:43:00;27.10;44.70
28087;DHT22;15392;48.912;8.380;2023-06-22T01:45:27;27.10;44.80
28087;DHT22;15392;48.912;8.380;2023-06-22T01:47:54;27.00;44.90
28087;DHT22;15392;48.912;8.380;2023-06-22T01:50:20;27.00;44.90
28087;DHT22;15392;48.912;8.380;2023-06-22T01:52:46;27.00;44.90
28087;DHT22;15392;48.912;8.380;2023-06-22T01:55:12;26.90;44.60
28087;DHT22;15392;48.912;8.380;2023-06-22T01:57:38;26.80;44.60
28087;DHT22;15392;48.912;8.380;2023-06-22T02:00:12;26.80;44.70
28087;DHT22;15392;48.912;8.380;2023-06-22T02:02:44;26.80;45.30
28087;DHT22;15392;48.912;8.380;2023-06-22T02:05:18;26.70;45.20
28087;DHT22;15392;48.912;8.380;2023-06-22T02:07:49;26.70;44.90
28087;DHT22;15392;48.912;8.380;2023-06-22T02:10:28;26.70;45.10
28087;DHT22;15392;48.912;8.380;2023-06-22T02:12:56;26.70;44.90
28087;DHT22;15392;48.912;8.380;2023-06-22T02:15:23;26.70;44.90
28087;DHT22;15392;48.912;8.380;2023-06-22T02:17:49;26.70;44.70
28087;DHT22;15392;48.912;8.380;2023-06-22T02:20:15;26.60;44.70
28087;DHT22;15392;48.912;8.380;2023-06-22T02:22:41;26.60;44.70
28087;DHT22;15392;48.912;8.380;2023-06-22T02:25:07;26.60;44.90
28087;DHT22;15392;48.912;8.380;2023-06-22T02:27:33;26.60;44.90
28087;DHT22;15392;48.912;8.380;2023-06-22T02:29:59;26.60;44.80
28087;DHT22;15392;48.912;8.380;2023-06-22T02:32:25;26.50;44.90
28087;DHT22;15392;48.912;8.380;2023-06-22T02:34:51;26.50;44.70
28087;DHT22;15392;48.912;8.380;2023-06-22T02:37:17;26.50;45.40
28087;DHT22;15392;48.912;8.380;2023-06-22T02:39:43;26.50;44.80
28087;DHT22;15392;48.912;8.380;2023-06-22T02:42:09;26.50;44.90
28087;DHT22;15392;48.912;8.380;2023-06-22T02:44:37;26.50;45.00
28087;DHT22;15392;48.912;8.380;2023-06-22T02:47:03;26.50;45.00
28087;DHT22;15392;48.912;8.380;2023-06-22T02:49:30;26.40;45.00
28087;DHT22;15392;48.912;8.380;2023-06-22T02:51:56;26.40;44.90
28087;DHT22;15392;48.912;8.380;2023-06-22T02:54:22;26.40;45.10
28087;DHT22;15392;48.912;8.380;2023-06-22T02:56:48;26.30;45.10
28087;DHT22;15392;48.912;8.380;2023-06-22T02:59:14;26.30;45.40
28087;DHT22;15392;48.912;8.380;2023-06-22T03:01:39;26.20;45.70
28087;DHT22;15392;48.912;8.380;2023-06-22T03:04:06;26.20;45.90
28087;DHT22;15392;48.912;8.380;2023-06-22T03:06:33;26.20;45.60
28087;DHT22;15392;48.912;8.380;2023-06-22T03:09:00;26.20;45.60
28087;DHT22;15392;48.912;8.380;2023-06-22T03:11:29;26.10;45.70
28087;DHT22;15392;48.912;8.380;2023-06-22T03:13:56;26.10;46.40
28087;DHT22;15392;48.912;8.380;2023-06-22T03:16:22;26.00;46.00
28087;DHT22;15392;48.912;8.380;2023-06-22T03:18:48;26.00;46.60
28087;DHT22;15392;48.912;8.380;2023-06-22T03:21:14;25.90;46.20
28087;DHT22;15392;48.912;8.380;2023-06-22T03:23:41;25.90;45.90
28087;DHT22;15392;48.912;8.380;2023-06-22T03:26:09;25.90;46.10
28087;DHT22;15392;48.912;8.380;2023-06-22T03:28:35;25.80;45.60
28087;DHT22;15392;48.912;8.380;2023-06-22T03:31:01;25.80;46.20
28087;DHT22;15392;48.912;8.380;2023-06-22T03:33:26;25.80;46.10
28087;DHT22;15392;48.912;8.380;2023-06-22T03:35:52;25.80;46.10
28087;DHT22;15392;48.912;8.380;2023-06-22T03:38:19;25.80;45.90
28087;DHT22;15392;48.912;8.380;2023-06-22T03:40:45;25.70;45.90
28087;DHT22;15392;48.912;8.380;2023-06-22T03:43:10;25.70;45.90
28087;DHT22;15392;48.912;8.380;2023-06-22T03:45:36;25.70;45.70
28087;DHT22;15392;48.912;8.380;2023-06-22T03:48:02;25.70;46.60
28087;DHT22;15392;48.912;8.380;2023-06-22T03:50:28;25.70;45.90
28087;DHT22;15392;48.912;8.380;2023-06-22T03:52:55;25.70;46.60
28087;DHT22;15392;48.912;8.380;2023-06-22T03:55:21;25.70;46.30
28087;DHT22;15392;48.912;8.380;2023-06-22T03:57:47;25.70;47.60
28087;DHT22;15392;48.912;8.380;2023-06-22T04:00:13;25.70;46.20
28087;DHT22;15392;48.912;8.380;2023-06-22T04:02:41;25.70;46.90
28087;DHT22;15392;48.912;8.380;2023-06-22T04:05:09;25.70;46.90
28087;DHT22;15392;48.912;8.380;2023-06-22T04:07:35;25.80;46.90
28087;DHT22;15392;48.912;8.380;2023-06-22T04:10:06;25.80;46.60
28087;DHT22;15392;48.912;8.380;2023-06-22T04:12:34;25.80;46.90
28087;DHT22;15392;48.912;8.380;2023-06-22T04:14:59;25.80;47.50
28087;DHT22;15392;48.912;8.380;2023-06-22T04:17:25;25.80;46.90
28087;DHT22;15392;48.912;8.380;2023-06-22T04:19:51;25.80;46.90
28087;DHT22;15392;48.912;8.380;2023-06-22T04:22:17;25.80;46.90
28087;DHT22;15392;48.912;8.380;2023-06-22T04:24:44;25.80;47.10
28087;DHT22;15392;48.912;8.380;2023-06-22T04:27:10;25.90;46.80
28087;DHT22;15392;48.912;8.380;2023-06-22T04:29:36;25.90;46.90
28087;DHT22;15392;48.912;8.380;2023-06-22T04:32:04;25.90;47.30
28087;DHT22;15392;48.912;8.380;2023-06-22T04:34:31;25.90;46.50
28087;DHT22;15392;48.912;8.380;2023-06-22T04:36:57;26.00;46.70
28087;DHT22;15392;48.912;8.380;2023-06-22T04:39:23;26.00;46.50
28087;DHT22;15392;48.912;8.380;2023-06-22T04:41:49;26.00;46.00
28087;DHT22;15392;48.912;8.380;2023-06-22T04:44:19;26.00;45.90
28087;DHT22;15392;48.912;8.380;2023-06-22T04:46:52;26.10;46.20
28087;DHT22;15392;48.912;8.380;2023-06-22T04:49:26;26.10;45.80
28087;DHT22;15392;48.912;8.380;2023-06-22T04:51:59;26.20;45.90
28087;DHT22;15392;48.912;8.380;2023-06-22T04:54:26;26.20;45.60
28087;DHT22;15392;48.912;8.380;2023-06-22T04:56:52;26.20;45.60
28087;DHT22;15392;48.912;8.380;2023-06-22T04:59:24;26.30;45.50
28087;DHT22;15392;48.912;8.380;2023-06-22T05:02:00;26.30;45.50
28087;DHT22;15392;48.912;8.380;2023-06-22T05:04:28;26.40;45.50
28087;DHT22;15392;48.912;8.380;2023-06-22T05:06:57;26.40;45.80
28087;DHT22;15392;48.912;8.380;2023-06-22T05:09:23;26.50;45.60
28087;DHT22;15392;48.912;8.380;2023-06-22T05:11:52;26.50;46.10
28087;DHT22;15392;48.912;8.380;2023-06-22T05:14:18;26.60;45.30
28087;DHT22;15392;48.912;8.380;2023-06-22T05:16:45;26.60;45.60
28087;DHT22;15392;48.912;8.380;2023-06-22T05:19:11;26.70;45.70
28087;DHT22;15392;48.912;8.380;2023-06-22T05:21:38;26.70;45.50
28087;DHT22;15392;48.912;8.380;2023-06-22T05:24:04;26.70;45.40
28087;DHT22;15392;48.912;8.380;2023-06-22T05:26:31;26.80;45.60
28087;DHT22;15392;48.912;8.380;2023-06-22T05:29:00;26.80;45.40
28087;DHT22;15392;48.912;8.380;2023-06-22T05:31:27;26.90;45.40
28087;DHT22;15392;48.912;8.380;2023-06-22T05:33:54;26.90;45.10
28087;DHT22;15392;48.912;8.380;2023-06-22T05:36:21;26.90;45.10
28087;DHT22;15392;48.912;8.380;2023-06-22T05:38:51;27.00;45.10
28087;DHT22;15392;48.912;8.380;2023-06-22T05:41:17;27.10;45.10
28087;DHT22;15392;48.912;8.380;2023-06-22T05:43:43;27.10;45.10
28087;DHT22;15392;48.912;8.380;2023-06-22T05:46:09;27.10;45.10
28087;DHT22;15392;48.912;8.380;2023-06-22T05:48:35;27.20;45.60
28087;DHT22;15392;48.912;8.380;2023-06-22T05:51:00;27.30;45.00
28087;DHT22;15392;48.912;8.380;2023-06-22T05:53:26;27.30;44.90
28087;DHT22;15392;48.912;8.380;2023-06-22T05:55:52;27.40;44.80
28087;DHT22;15392;48.912;8.380;2023-06-22T05:58:18;27.50;44.90
28087;DHT22;15392;48.912;8.380;2023-06-22T06:00:44;27.50;44.80
28087;DHT22;15392;48.912;8.380;2023-06-22T06:03:10;27.60;44.80
28087;DHT22;15392;48.912;8.380;2023-06-22T06:05:39;27.70;44.90
28087;DHT22;15392;48.912;8.380;2023-06-22T06:08:06;27.70;44.90
28087;DHT22;15392;48.912;8.380;2023-06-22T06:10:33;27.80;44.90
28087;DHT22;15392;48.912;8.380;2023-06-22T06:12:59;27.80;44.90
28087;DHT22;15392;48.912;8.380;2023-06-22T06:15:30;27.90;45.00
28087;DHT22;15392;48.912;8.380;2023-06-22T06:17:56;27.90;44.90
28087;DHT22;15392;48.912;8.380;2023-06-22T06:20:24;28.00;44.90
28087;DHT22;15392;48.912;8.380;2023-06-22T06:22:51;28.00;45.00
28087;DHT22;15392;48.912;8.380;2023-06-22T06:25:18;28.10;44.80
28087;DHT22;15392;48.912;8.380;2023-06-22T06:27:46;28.10;44.70
28087;DHT22;15392;48.912;8.380;2023-06-22T06:30:14;28.20;44.80
28087;DHT22;15392;48.912;8.380;2023-06-22T06:32:41;28.20;44.80
28087;DHT22;15392;48.912;8.380;2023-06-22T06:35:09;28.30;44.70
28087;DHT22;15392;48.912;8.380;2023-06-22T06:37:38;28.30;44.70
28087;DHT22;15392;48.912;8.380;2023-06-22T06:40:06;28.50;45.00
28087;DHT22;15392;48.912;8.380;2023-06-22T06:42:46;28.50;44.60
28087;DHT22;15392;48.912;8.380;2023-06-22T06:45:16;28.60;44.60
28087;DHT22;15392;48.912;8.380;2023-06-22T06:47:44;28.70;44.80
28087;DHT22;15392;48.912;8.380;2023-06-22T06:50:10;28.90;44.50
28087;DHT22;15392;48.912;8.380;2023-06-22T06:52:37;29.00;44.50
28087;DHT22;15392;48.912;8.380;2023-06-22T06:55:03;29.10;44.30
28087;DHT22;15392;48.912;8.380;2023-06-22T06:57:33;29.20;44.30
28087;DHT22;15392;48.912;8.380;2023-06-22T06:59:59;29.30;44.20
28087;DHT22;15392;48.912;8.380;2023-06-22T07:02:26;29.40;44.00
28087;DHT22;15392;48.912;8.380;2023-06-22T07:04:55;29.50;44.00
28087;DHT22;15392;48.912;8.380;2023-06-22T07:07:21;29.60;44.00
28087;DHT22;15392;48.912;8.380;2023-06-22T07:09:47;29.80;43.90
28087;DHT22;15392;48.912;8.380;2023-06-22T07:12:12;29.90;44.30
28087;DHT22;15392;48.912;8.380;2023-06-22T07:14:38;30.00;43.60
28087;DHT22;15392;48.912;8.380;2023-06-22T07:17:04;30.20;43.50
28087;DHT22;15392;48.912;8.380;2023-06-22T07:19:30;30.30;43.50
28087;DHT22;15392;48.912;8.380;2023-06-22T07:21:57;30.40;43.50
28087;DHT22;15392;48.912;8.380;2023-06-22T07:24:23;30.60;43.50
28087;DHT22;15392;48.912;8.380;2023-06-22T07:26:50;30.70;43.50
28087;DHT22;15392;48.912;8.380;2023-06-22T07:29:17;30.90;43.40
28087;DHT22;15392;48.912;8.380;2023-06-22T07:31:44;31.00;43.10
28087;DHT22;15392;48.912;8.380;2023-06-22T07:34:10;31.10;43.00
28087;DHT22;15392;48.912;8.380;2023-06-22T07:36:36;31.30;42.90
28087;DHT22;15392;48.912;8.380;2023-06-22T07:39:02;31.40;42.70
28087;DHT22;15392;48.912;8.380;2023-06-22T07:41:29;31.60;42.60
28087;DHT22;15392;48.912;8.380;2023-06-22T07:43:55;31.70;42.60
28087;DHT22;15392;48.912;8.380;2023-06-22T07:46:21;31.80;42.40
28087;DHT22;15392;48.912;8.380;2023-06-22T07:48:47;31.90;42.30
28087;DHT22;15392;48.912;8.380;2023-06-22T07:51:13;32.00;42.20
28087;DHT22;15392;48.912;8.380;2023-06-22T07:53:43;32.10;42.20
28087;DHT22;15392;48.912;8.380;2023-06-22T07:56:13;32.20;42.20
28087;DHT22;15392;48.912;8.380;2023-06-22T07:58:39;32.40;42.10
28087;DHT22;15392;48.912;8.380;2023-06-22T08:01:05;32.50;42.10
28087;DHT22;15392;48.912;8.380;2023-06-22T08:03:31;32.60;41.90
28087;DHT22;15392;48.912;8.380;2023-06-22T08:05:57;32.70;41.90
28087;DHT22;15392;48.912;8.380;2023-06-22T08:08:23;32.90;41.90
28087;DHT22;15392;48.912;8.380;2023-06-22T08:10:49;33.00;41.90
28087;DHT22;15392;48.912;8.380;2023-06-22T08:13:15;33.10;41.90
28087;DHT22;15392;48.912;8.380;2023-06-22T08:15:41;33.20;41.90
28087;DHT22;15392;48.912;8.380;2023-06-22T08:18:06;33.40;42.00
28087;DHT22;15392;48.912;8.380;2023-06-22T08:20:32;33.50;42.00
28087;DHT22;15392;48.912;8.380;2023-06-22T08:22:58;33.60;41.80
28087;DHT22;15392;48.912;8.380;2023-06-22T08:25:30;33.80;41.70
28087;DHT22;15392;48.912;8.380;2023-06-22T08:27:56;33.80;41.40
28087;DHT22;15392;48.912;8.380;2023-06-22T08:30:22;33.90;41.30
28087;DHT22;15392;48.912;8.380;2023-06-22T08:32:48;34.00;41.20
28087;DHT22;15392;48.912;8.380;2023-06-22T08:35:13;34.00;41.30
28087;DHT22;15392;48.912;8.380;2023-06-22T08:37:39;34.10;41.30
28087;DHT22;15392;48.912;8.380;2023-06-22T08:40:06;34.10;41.10
28087;DHT22;15392;48.912;8.380;2023-06-22T08:42:36;34.10;41.20
28087;DHT22;15392;48.912;8.380;2023-06-22T08:45:03;34.10;41.20
28087;DHT22;15392;48.912;8.380;2023-06-22T08:47:29;34.20;41.40
28087;DHT22;15392;48.912;8.380;2023-06-22T08:49:55;34.20;41.40
28087;DHT22;15392;48.912;8.380;2023-06-22T08:52:22;34.30;41.90
28087;DHT22;15392;48.912;8.380;2023-06-22T08:54:49;34.30;41.00
28087;DHT22;15392;48.912;8.380;2023-06-22T08:57:15;34.40;41.10
28087;DHT22;15392;48.912;8.380;2023-06-22T08:59:42;34.50;41.00
28087;DHT22;15392;48.912;8.380;2023-06-22T09:02:08;34.60;41.10
28087;DHT22;15392;48.912;8.380;2023-06-22T09:04:33;34.70;40.90
28087;DHT22;15392;48.912;8.380;2023-06-22T09:07:03;34.80;40.90
28087;DHT22;15392;48.912;8.380;2023-06-22T09:09:29;34.80;40.80
28087;DHT22;15392;48.912;8.380;2023-06-22T09:11:55;35.00;41.10
28087;DHT22;15392;48.912;8.380;2023-06-22T09:14:21;35.10;41.20
28087;DHT22;15392;48.912;8.380;2023-06-22T09:16:46;35.20;41.30
28087;DHT22;15392;48.912;8.380;2023-06-22T09:19:12;35.40;41.20
28087;DHT22;15392;48.912;8.380;2023-06-22T09:21:38;35.60;41.20
28087;DHT22;15392;48.912;8.380;2023-06-22T09:24:04;35.80;41.10
28087;DHT22;15392;48.912;8.380;2023-06-22T09:26:30;35.90;40.90
28087;DHT22;15392;48.912;8.380;2023-06-22T09:28:56;36.10;40.70
28087;DHT22;15392;48.912;8.380;2023-06-22T09:31:23;36.30;40.80
28087;DHT22;15392;48.912;8.380;2023-06-22T09:33:55;36.40;40.50
28087;DHT22;15392;48.912;8.380;2023-06-22T09:36:21;36.50;40.20
28087;DHT22;15392;48.912;8.380;2023-06-22T09:38:48;36.70;40.10
28087;DHT22;15392;48.912;8.380;2023-06-22T09:41:14;36.70;39.70
28087;DHT22;15392;48.912;8.380;2023-06-22T09:43:41;36.80;39.90
28087;DHT22;15392;48.912;8.380;2023-06-22T09:46:07;36.80;39.80
28087;DHT22;15392;48.912;8.380;2023-06-22T09:48:34;36.80;39.80
28087;DHT22;15392;48.912;8.380;2023-06-22T09:51:00;36.80;39.60
28087;DHT22;15392;48.912;8.380;2023-06-22T09:53:26;36.80;39.50
28087;DHT22;15392;48.912;8.380;2023-06-22T09:55:51;36.80;39.40
28087;DHT22;15392;48.912;8.380;2023-06-22T09:58:17;36.80;39.00
28087;DHT22;15392;48.912;8.380;2023-06-22T10:00:43;36.80;39.10
28087;DHT22;15392;48.912;8.380;2023-06-22T10:03:08;36.70;39.20
28087;DHT22;15392;48.912;8.380;2023-06-22T10:05:34;36.60;39.20
28087;DHT22;15392;48.912;8.380;2023-06-22T10:08:00;36.50;39.40
28087;DHT22;15392;48.912;8.380;2023-06-22T10:10:26;36.40;39.40
28087;DHT22;15392;48.912;8.380;2023-06-22T10:12:56;36.40;39.40
28087;DHT22;15392;48.912;8.380;2023-06-22T10:15:23;36.40;39.20
28087;DHT22;15392;48.912;8.380;2023-06-22T10:17:49;36.30;39.40
28087;DHT22;15392;48.912;8.380;2023-06-22T10:20:15;36.20;39.60
28087;DHT22;15392;48.912;8.380;2023-06-22T10:22:44;36.20;39.60
28087;DHT22;15392;48.912;8.380;2023-06-22T10:25:12;36.10;39.60
28087;DHT22;15392;48.912;8.380;2023-06-22T10:27:39;36.10;39.70
28087;DHT22;15392;48.912;8.380;2023-06-22T10:30:09;36.10;39.70
28087;DHT22;15392;48.912;8.380;2023-06-22T10:32:37;36.10;39.60
28087;DHT22;15392;48.912;8.380;2023-06-22T10:35:03;36.10;39.60
28087;DHT22;15392;48.912;8.380;2023-06-22T10:37:29;36.20;39.70
28087;DHT22;15392;48.912;8.380;2023-06-22T10:39:55;36.10;39.70
28087;DHT22;15392;48.912;8.380;2023-06-22T10:42:21;36.10;39.60
28087;DHT22;15392;48.912;8.380;2023-06-22T10:44:47;36.10;39.50
28087;DHT22;15392;48.912;8.380;2023-06-22T10:47:12;36.00;39.50
28087;DHT22;15392;48.912;8.380;2023-06-22T10:49:39;36.00;39.40
28087;DHT22;15392;48.912;8.380;2023-06-22T10:52:08;36.00;39.50
28087;DHT22;15392;48.912;8.380;2023-06-22T10:54:38;35.90;39.20
28087;DHT22;15392;48.912;8.380;2023-06-22T10:57:04;35.90;39.40
28087;DHT22;15392;48.912;8.380;2023-06-22T10:59:30;35.90;39.40
28087;DHT22;15392;48.912;8.380;2023-06-22T11:01:56;35.90;39.60
28087;DHT22;15392;48.912;8.380;2023-06-22T11:04:23;35.80;39.50
28087;DHT22;15392;48.912;8.380;2023-06-22T11:06:49;35.70;39.60
28087;DHT22;15392;48.912;8.380;2023-06-22T11:09:16;35.70;39.60
28087;DHT22;15392;48.912;8.380;2023-06-22T11:11:49;35.70;39.60
28087;DHT22;15392;48.912;8.380;2023-06-22T11:14:16;35.70;39.70
28087;DHT22;15392;48.912;8.380;2023-06-22T11:16:42;35.70;39.80
28087;DHT22;15392;48.912;8.380;2023-06-22T11:19:08;35.70;40.00
28087;DHT22;15392;48.912;8.380;2023-06-22T11:21:34;35.70;39.90
28087;DHT22;15392;48.912;8.380;2023-06-22T11:24:01;35.70;39.90
28087;DHT22;15392;48.912;8.380;2023-06-22T11:26:26;35.80;39.80
28087;DHT22;15392;48.912;8.380;2023-06-22T11:28:53;35.80;39.80
28087;DHT22;15392;48.912;8.380;2023-06-22T11:31:19;35.80;39.70
28087;DHT22;15392;48.912;8.380;2023-06-22T11:33:45;35.90;39.60
28087;DHT22;15392;48.912;8.380;2023-06-22T11:36:12;35.90;39.60
28087;DHT22;15392;48.912;8.380;2023-06-22T11:38:38;35.90;39.60
28087;DHT22;15392;48.912;8.380;2023-06-22T11:41:08;35.80;39.60
28087;DHT22;15392;48.912;8.380;2023-06-22T11:43:34;35.80;39.60
28087;DHT22;15392;48.912;8.380;2023-06-22T11:46:02;35.80;39.70
28087;DHT22;15392;48.912;8.380;2023-06-22T11:48:28;35.80;39.70
28087;DHT22;15392;48.912;8.380;2023-06-22T11:50:54;35.80;39.60
28087;DHT22;15392;48.912;8.380;2023-06-22T11:53:24;35.80;39.70
28087;DHT22;15392;48.912;8.380;2023-06-22T11:55:51;35.80;39.70
28087;DHT22;15392;48.912;8.380;2023-06-22T11:58:18;35.80;39.70
28087;DHT22;15392;48.912;8.380;2023-06-22T12:00:44;35.80;39.90
28087;DHT22;15392;48.912;8.380;2023-06-22T12:03:10;35.80;39.90
28087;DHT22;15392;48.912;8.380;2023-06-22T12:05:37;35.90;39.70
28087;DHT22;15392;48.912;8.380;2023-06-22T12:08:04;35.90;39.80
28087;DHT22;15392;48.912;8.380;2023-06-22T12:10:30;35.90;39.90
28087;DHT22;15392;48.912;8.380;2023-06-22T12:12:56;35.90;39.80
28087;DHT22;15392;48.912;8.380;2023-06-22T12:15:23;35.90;39.90
28087;DHT22;15392;48.912;8.380;2023-06-22T12:17:49;36.00;40.20
28087;DHT22;15392;48.912;8.380;2023-06-22T12:20:15;36.00;40.50
28087;DHT22;15392;48.912;8.380;2023-06-22T12:22:41;35.90;39.80
28087;DHT22;15392;48.912;8.380;2023-06-22T12:25:07;36.00;39.90
28087;DHT22;15392;48.912;8.380;2023-06-22T12:27:34;36.00;39.90
28087;DHT22;15392;48.912;8.380;2023-06-22T12:30:01;36.00;39.60
28087;DHT22;15392;48.912;8.380;2023-06-22T12:32:27;36.00;39.70
28087;DHT22;15392;48.912;8.380;2023-06-22T12:34:53;36.00;39.60
28087;DHT22;15392;48.912;8.380;2023-06-22T12:37:19;35.90;39.80
28087;DHT22;15392;48.912;8.380;2023-06-22T12:39:45;35.90;39.80
28087;DHT22;15392;48.912;8.380;2023-06-22T12:42:10;35.90;40.00
28087;DHT22;15392;48.912;8.380;2023-06-22T12:44:40;35.90;40.00
28087;DHT22;15392;48.912;8.380;2023-06-22T12:47:07;35.80;39.90
28087;DHT22;15392;48.912;8.380;2023-06-22T12:49:35;35.80;40.00
28087;DHT22;15392;48.912;8.380;2023-06-22T12:52:01;35.80;40.30
28087;DHT22;15392;48.912;8.380;2023-06-22T12:54:27;35.70;40.30
28087;DHT22;15392;48.912;8.380;2023-06-22T12:56:56;35.70;40.30
28087;DHT22;15392;48.912;8.380;2023-06-22T12:59:22;35.70;40.30
28087;DHT22;15392;48.912;8.380;2023-06-22T13:01:48;35.70;40.30
28087;DHT22;15392;48.912;8.380;2023-06-22T13:04:14;35.70;40.40
28087;DHT22;15392;48.912;8.380;2023-06-22T13:06:41;35.70;40.30
28087;DHT22;15392;48.912;8.380;2023-06-22T13:09:09;35.60;40.40
28087;DHT22;15392;48.912;8.380;2023-06-22T13:11:35;35.60;40.60
28087;DHT22;15392;48.912;8.380;2023-06-22T13:14:01;35.60;40.60
28087;DHT22;15392;48.912;8.380;2023-06-22T13:16:27;35.60;40.80
28087;DHT22;15392;48.912;8.380;2023-06-22T13:18:52;35.60;40.80
28087;DHT22;15392;48.912;8.380;2023-06-22T13:21:18;35.60;40.70
28087;DHT22;15392;48.912;8.380;2023-06-22T13:23:44;35.70;40.80
28087;DHT22;15392;48.912;8.380;2023-06-22T13:26:09;35.70;40.70
28087;DHT22;15392;48.912;8.380;2023-06-22T13:28:35;35.70;40.70
28087;DHT22;15392;48.912;8.380;2023-06-22T13:31:01;35.70;40.50
28087;DHT22;15392;48.912;8.380;2023-06-22T13:33:27;35.80;40.60
28087;DHT22;15392;48.912;8.380;2023-06-22T13:35:52;35.80;40.50
28087;DHT22;15392;48.912;8.380;2023-06-22T13:38:18;35.80;40.50
28087;DHT22;15392;48.912;8.380;2023-06-22T13:40:44;35.90;40.50
28087;DHT22;15392;48.912;8.380;2023-06-22T13:43:10;35.90;40.30
28087;DHT22;15392;48.912;8.380;2023-06-22T13:45:36;36.00;40.40
28087;DHT22;15392;48.912;8.380;2023-06-22T13:48:02;36.00;40.20
28087;DHT22;15392;48.912;8.380;2023-06-22T13:50:27;36.00;40.20
28087;DHT22;15392;48.912;8.380;2023-06-22T13:52:56;36.00;40.20
28087;DHT22;15392;48.912;8.380;2023-06-22T13:55:22;36.00;40.30
28087;DHT22;15392;48.912;8.380;2023-06-22T13:57:48;36.00;40.30
28087;DHT22;15392;48.912;8.380;2023-06-22T14:00:14;36.00;40.20
28087;DHT22;15392;48.912;8.380;2023-06-22T14:02:41;36.00;40.10
28087;DHT22;15392;48.912;8.380;2023-06-22T14:05:07;36.00;39.80
28087;DHT22;15392;48.912;8.380;2023-06-22T14:07:33;36.00;39.90
28087;DHT22;15392;48.912;8.380;2023-06-22T14:10:00;36.00;40.00
28087;DHT22;15392;48.912;8.380;2023-06-22T14:12:26;35.90;40.00
28087;DHT22;15392;48.912;8.380;2023-06-22T14:14:51;35.90;40.10
28087;DHT22;15392;48.912;8.380;2023-06-22T14:17:17;35.80;40.00
28087;DHT22;15392;48.912;8.380;2023-06-22T14:19:49;35.80;40.10
28087;DHT22;15392;48.912;8.380;2023-06-22T14:22:17;35.70;40.00
28087;DHT22;15392;48.912;8.380;2023-06-22T14:24:43;35.70;40.00
28087;DHT22;15392;48.912;8.380;2023-06-22T14:27:10;35.70;40.00
28087;DHT22;15392;48.912;8.380;2023-06-22T14:29:36;35.60;40.00
28087;DHT22;15392;48.912;8.380;2023-06-22T14:32:01;35.60;40.00
28087;DHT22;15392;48.912;8.380;2023-06-22T14:34:27;35.50;40.00
28087;DHT22;15392;48.912;8.380;2023-06-22T14:36:53;35.50;40.10
28087;DHT22;15392;48.912;8.380;2023-06-22T14:39:21;35.50;40.10
28087;DHT22;15392;48.912;8.380;2023-06-22T14:41:47;35.50;40.10
28087;DHT22;15392;48.912;8.380;2023-06-22T14:44:13;35.50;40.10
28087;DHT22;15392;48.912;8.380;2023-06-22T14:46:39;35.50;40.00
28087;DHT22;15392;48.912;8.380;2023-06-22T14:49:05;35.50;40.10
28087;DHT22;15392;48.912;8.380;2023-06-22T14:51:30;35.50;40.00
28087;DHT22;15392;48.912;8.380;2023-06-22T14:53:56;35.40;40.00
28087;DHT22;15392;48.912;8.380;2023-06-22T14:56:22;35.40;40.20
28087;DHT22;15392;48.912;8.380;2023-06-22T14:58:47;35.40;39.90
28087;DHT22;15392;48.912;8.380;2023-06-22T15:01:16;35.50;39.90
28087;DHT22;15392;48.912;8.380;2023-06-22T15:03:44;35.40;39.60
28087;DHT22;15392;48.912;8.380;2023-06-22T15:06:10;35.40;39.90
28087;DHT22;15392;48.912;8.380;2023-06-22T15:08:42;35.40;39.70
28087;DHT22;15392;48.912;8.380;2023-06-22T15:11:09;35.40;39.90
28087;DHT22;15392;48.912;8.380;2023-06-22T15:13:35;35.40;39.90
28087;DHT22;15392;48.912;8.380;2023-06-22T15:16:04;35.40;39.90
28087;DHT22;15392;48.912;8.380;2023-06-22T15:18:30;35.40;39.90
28087;DHT22;15392;48.912;8.380;2023-06-22T15:20:56;35.50;39.70
28087;DHT22;15392;48.912;8.380;2023-06-22T15:23:23;35.50;39.80
28087;DHT22;15392;48.912;8.380;2023-06-22T15:25:48;35.50;39.80
28087;DHT22;15392;48.912;8.380;2023-06-22T15:28:14;35.50;39.60
28087;DHT22;15392;48.912;8.380;2023-06-22T15:30:40;35.50;39.70
28087;DHT22;15392;48.912;8.380;2023-06-22T15:33:06;35.50;39.80
28087;DHT22;15392;48.912;8.380;2023-06-22T15:35:32;35.50;39.70